Time;durP1;ratioP1;P1;durP2;ratioP2;P2;SDS_P1;SDS_P2;PMS_P1;PMS_P2;Temp;Humidity;BMP_temperature;BMP_pressure;BME280_temperature;BME280_humidity;BME280_pressure;Samples;Min_cycle;Max_cycle;Signal;HPM_P1;HPM_P2
2021/03/29 00:00:26;;;;;;;29.23;17.07;;;;;;;26.39;35.15;158090.09;1646300;86;21859;-76
2021/03/29 00:03:00;;;;;;;27.25;15.20;;;;;;;26.38;35.04;158087.44;1694447;83;21803;-76
2021/03/29 00:05:34;;;;;;;23.90;14.75;;;;;;;26.42;35.03;158096.78;1718228;83;21236;-76
2021/03/29 00:08:18;;;;;;;25.37;13.93;;;;;;;26.38;35.02;158087.44;1711183;83;21360;-77
2021/03/29 00:10:53;;;;;;;27.82;15.93;;;;;;;26.38;35.04;158086.13;1713710;82;21340;-77
2021/03/29 00:13:27;;;;;;;32.40;18.42;;;;;;;26.29;35.11;158063.53;1724647;82;21213;-77
2021/03/29 00:16:01;;;;;;;35.30;17.42;;;;;;;26.34;35.03;158075.48;1674143;84;21243;-77
2021/03/29 00:18:34;;;;;;;30.48;16.62;;;;;;;26.20;35.10;158039.64;1667514;85;21185;-77
2021/03/29 00:21:08;;;;;;;31.05;16.65;;;;;;;26.22;35.06;158044.91;1672511;85;21743;-77
2021/03/29 00:23:41;;;;;;;27.62;16.15;;;;;;;26.34;34.89;158075.48;1674277;85;21255;-77
2021/03/29 00:26:15;;;;;;;26.70;15.50;;;;;;;26.33;34.92;158074.13;1669856;84;21675;-77
2021/03/29 00:28:48;;;;;;;25.10;14.18;;;;;;;26.32;34.88;158070.16;1685722;84;21866;-77
2021/03/29 00:31:22;;;;;;;25.68;13.70;;;;;;;26.35;34.80;158078.16;1675863;84;21293;-78
2021/03/29 00:33:55;;;;;;;26.55;14.00;;;;;;;26.34;34.83;158075.48;1674133;85;21164;-77
2021/03/29 00:36:29;;;;;;;28.75;15.28;;;;;;;26.36;34.81;158080.81;1678477;85;22206;-77
2021/03/29 00:39:05;;;;;;;32.98;18.30;;;;;;;26.39;34.73;158090.09;1710833;83;21201;-78
2021/03/29 00:41:38;;;;;;;32.67;19.25;;;;;;;26.21;34.92;158040.94;1710474;83;21492;-77
2021/03/29 00:44:11;;;;;;;31.40;19.15;;;;;;;26.23;34.89;158047.56;1710134;83;21759;-78
2021/03/29 00:46:44;;;;;;;29.45;16.57;;;;;;;26.24;34.84;158050.23;1711547;82;21689;-77
2021/03/29 00:49:17;;;;;;;25.35;15.75;;;;;;;26.25;34.84;158052.89;1677803;85;21937;-78
2021/03/29 00:51:51;;;;;;;30.85;17.00;;;;;;;26.22;34.82;158043.59;1675707;84;21137;-77
2021/03/29 00:54:26;;;;;;;29.23;16.15;;;;;;;26.18;34.84;158034.31;1677704;85;21752;-78
2021/03/29 00:56:59;;;;;;;25.95;14.90;;;;;;;26.01;35.03;157987.83;1708273;83;21411;-77
2021/03/29 00:59:32;;;;;;;27.45;14.60;;;;;;;25.94;35.15;157970.56;1707994;83;21320;-78
2021/03/29 01:02:06;;;;;;;25.15;14.58;;;;;;;25.98;35.11;157981.16;1713798;83;21342;-78
2021/03/29 01:04:39;;;;;;;27.40;13.65;;;;;;;26.06;35.04;158002.44;1722845;82;21311;-78
2021/03/29 01:07:12;;;;;;;26.97;15.10;;;;;;;26.09;35.04;158010.42;1710119;84;21755;-77
2021/03/29 01:09:46;;;;;;;24.50;12.98;;;;;;;26.11;34.96;158015.69;1710496;84;21743;-78
2021/03/29 01:12:18;;;;;;;24.63;12.47;;;;;;;26.11;35.02;158014.38;1710117;84;21187;-77
2021/03/29 01:14:53;;;;;;;24.35;13.35;;;;;;;26.15;34.97;158026.33;1710154;84;21182;-77
2021/03/29 01:17:34;;;;;;;27.60;15.43;;;;;;;26.11;35.01;158014.38;1710094;84;21193;-77
2021/03/29 01:20:24;;;;;;;21.27;13.10;;;;;;;26.22;34.89;158044.91;1712319;84;21216;-77
2021/03/29 01:22:56;;;;;;;20.17;12.05;;;;;;;26.18;34.86;158034.31;1714931;83;21240;-77
2021/03/29 01:25:38;;;;;;;25.72;13.95;;;;;;;26.18;34.82;158032.95;1716776;83;21193;-78
2021/03/29 01:28:18;;;;;;;21.95;12.73;;;;;;;26.11;34.89;158015.69;1718461;83;21692;-77
2021/03/29 01:30:51;;;;;;;24.18;13.65;;;;;;;26.37;34.56;158084.78;1718726;83;21196;-78
2021/03/29 01:33:24;;;;;;;25.48;14.15;;;;;;;26.35;34.53;158079.45;1717856;83;21371;-78
2021/03/29 01:36:00;;;;;;;30.02;15.70;;;;;;;26.31;34.60;158068.86;1714768;83;21323;-78
2021/03/29 01:38:33;;;;;;;28.40;16.87;;;;;;;26.35;34.54;158078.16;1715774;82;21225;-78
2021/03/29 01:41:06;;;;;;;23.40;14.05;;;;;;;26.13;34.79;158019.70;1714824;84;21876;-78
2021/03/29 01:43:40;;;;;;;25.20;14.75;;;;;;;26.13;34.85;158021.02;1715528;82;21194;-78
2021/03/29 01:46:14;;;;;;;31.07;16.57;;;;;;;26.18;34.80;158034.31;1714316;84;21204;-78
2021/03/29 01:48:46;;;;;;;27.62;15.83;;;;;;;26.19;34.76;158036.98;1705481;82;21189;-78
2021/03/29 01:51:19;;;;;;;28.70;15.60;;;;;;;26.55;34.39;158134.00;1700321;84;21205;-77
2021/03/29 01:53:52;;;;;;;30.72;16.70;;;;;;;26.63;34.21;158153.94;1678065;85;21725;-78
2021/03/29 01:56:25;;;;;;;26.37;15.03;;;;;;;26.54;34.31;158130.03;1690034;84;21362;-77
2021/03/29 01:58:58;;;;;;;25.72;14.78;;;;;;;26.44;34.35;158103.47;1714805;83;21331;-78
2021/03/29 02:01:31;;;;;;;27.00;15.28;;;;;;;26.43;34.37;158100.80;1717453;83;21760;-77
2021/03/29 02:04:05;;;;;;;28.38;14.98;;;;;;;26.61;34.09;158149.97;1705105;83;21208;-77
2021/03/29 02:06:38;;;;;;;25.77;14.18;;;;;;;26.42;34.31;158096.78;1717144;83;21171;-78
2021/03/29 02:09:11;;;;;;;23.57;13.20;;;;;;;26.35;34.36;158078.16;1718139;83;21416;-77
2021/03/29 02:11:45;;;;;;;26.12;13.83;;;;;;;26.33;34.40;158074.13;1718403;83;21183;-77
2021/03/29 02:14:19;;;;;;;29.00;15.35;;;;;;;26.32;34.41;158071.53;1718215;83;21349;-77
2021/03/29 02:16:53;;;;;;;25.23;13.83;;;;;;;26.31;34.41;158067.50;1718431;83;21177;-77
2021/03/29 02:19:27;;;;;;;23.77;12.88;;;;;;;26.01;34.84;157989.13;1706663;83;21857;-78
2021/03/29 02:22:00;;;;;;;27.15;14.28;;;;;;;26.01;34.87;157989.13;1722111;83;21165;-79
2021/03/29 02:24:32;;;;;;;25.70;13.60;;;;;;;26.03;34.88;157993.16;1719150;83;21225;-78
2021/03/29 02:27:06;;;;;;;28.85;14.33;;;;;;;26.00;34.90;157986.47;1721840;83;21602;-78
2021/03/29 02:29:38;;;;;;;29.48;15.83;;;;;;;26.06;34.88;158002.44;1712282;82;21182;-77
2021/03/29 02:32:11;;;;;;;30.23;15.72;;;;;;;26.06;34.87;158001.08;1709068;83;21768;-77
2021/03/29 02:34:45;;;;;;;27.22;14.05;;;;;;;26.02;34.89;157991.78;1709719;83;21748;-77
2021/03/29 02:37:17;;;;;;;21.55;11.93;;;;;;;25.96;35.01;157975.88;1710249;82;21284;-77
2021/03/29 02:39:50;;;;;;;24.27;10.82;;;;;;;25.92;35.06;157963.94;1709593;83;21173;-77
2021/03/29 02:42:23;;;;;;;26.07;12.80;;;;;;;25.91;35.09;157962.58;1709425;83;21218;-78
2021/03/29 02:44:55;;;;;;;27.73;13.53;;;;;;;26.25;34.71;158052.89;1710082;82;21252;-77
2021/03/29 02:47:30;;;;;;;28.95;14.35;;;;;;;26.31;34.60;158067.50;1713712;82;21312;-78
2021/03/29 02:50:10;;;;;;;30.65;14.05;;;;;;;26.03;34.91;157994.45;1708258;83;21194;-78
2021/03/29 02:52:47;;;;;;;33.45;15.40;;;;;;;25.88;35.10;157953.28;1706327;83;21376;-77
2021/03/29 02:55:20;;;;;;;24.30;12.53;;;;;;;26.06;34.93;158002.44;1717108;82;21206;-78
2021/03/29 02:57:54;;;;;;;24.95;11.65;;;;;;;26.22;34.73;158043.59;1716746;82;21207;-77
2021/03/29 03:00:27;;;;;;;24.12;12.40;;;;;;;26.33;34.63;158072.83;1703647;83;21211;-78
2021/03/29 03:03:01;;;;;;;24.60;11.57;;;;;;;26.29;34.63;158063.53;1709022;84;21697;-78
2021/03/29 03:05:38;;;;;;;22.20;11.35;;;;;;;26.10;34.83;158011.72;1704485;84;21212;-78
2021/03/29 03:08:10;;;;;;;29.10;13.80;;;;;;;26.43;34.55;158099.44;1704207;83;21244;-78
2021/03/29 03:10:44;;;;;;;26.68;13.18;;;;;;;26.12;34.81;158018.34;1704257;84;21247;-77
2021/03/29 03:13:18;;;;;;;24.47;11.57;;;;;;;25.99;35.03;157983.81;1649323;86;21251;-78
2021/03/29 03:15:52;;;;;;;27.17;13.00;;;;;;;26.02;34.98;157991.78;1672028;85;21191;-77
2021/03/29 03:18:25;;;;;;;26.80;13.43;;;;;;;26.21;34.91;158040.94;1656506;85;21188;-78
2021/03/29 03:20:59;;;;;;;27.52;13.65;;;;;;;26.10;34.88;158011.72;1676567;85;21183;-77
2021/03/29 03:23:32;;;;;;;31.97;14.68;;;;;;;25.94;35.13;157969.20;1681564;84;21201;-78
2021/03/29 03:26:04;;;;;;;29.52;14.07;;;;;;;26.00;35.05;157985.16;1685524;85;21261;-78
2021/03/29 03:28:37;;;;;;;24.20;12.35;;;;;;;26.00;35.13;157985.16;1694569;84;21716;-77
2021/03/29 03:31:10;;;;;;;29.72;13.55;;;;;;;25.84;35.26;157942.66;1684884;84;21328;-78
2021/03/29 03:33:43;;;;;;;28.17;15.15;;;;;;;25.69;35.51;157904.09;1651055;86;21191;-77
2021/03/29 03:36:18;;;;;;;25.92;13.30;;;;;;;25.68;35.56;157900.13;1652841;85;21188;-78
2021/03/29 03:38:52;;;;;;;26.68;13.43;;;;;;;25.71;35.51;157908.06;1649456;85;21237;-78
2021/03/29 03:41:34;;;;;;;25.70;12.98;;;;;;;25.65;35.64;157892.16;1648995;85;21250;-78
2021/03/29 03:44:08;;;;;;;24.82;11.38;;;;;;;25.70;35.50;157906.75;1636175;85;21915;-81
2021/03/29 03:46:42;;;;;;;28.02;11.38;;;;;;;25.71;35.57;157908.06;1633278;85;21415;-74
2021/03/29 03:49:19;;;;;;;25.90;10.70;;;;;;;25.68;35.52;157900.13;1634142;85;21319;-77
2021/03/29 03:51:51;;;;;;;22.67;10.00;;;;;;;25.63;35.49;157886.83;1669320;83;21213;-82
2021/03/29 03:54:25;;;;;;;26.57;10.93;;;;;;;25.66;35.45;157896.13;1660396;83;21790;-84
2021/03/29 03:56:58;;;;;;;25.68;10.63;;;;;;;25.80;35.37;157933.36;1670682;83;21309;-83
2021/03/29 03:59:31;;;;;;;26.05;10.68;;;;;;;25.83;35.25;157941.34;1659949;84;21772;-75
2021/03/29 04:02:06;;;;;;;20.60;9.75;;;;;;;25.68;35.28;157900.13;1661038;83;21268;-79
2021/03/29 04:04:40;;;;;;;21.20;10.03;;;;;;;25.91;35.08;157962.58;1661706;83;21431;-80
2021/03/29 04:07:13;;;;;;;23.77;11.18;;;;;;;25.72;35.26;157910.72;1662473;83;21778;-77
2021/03/29 04:09:55;;;;;;;22.62;11.12;;;;;;;25.64;35.38;157889.50;1647514;84;21201;-77
2021/03/29 04:12:29;;;;;;;25.17;11.30;;;;;;;25.63;35.42;157886.83;1669099;83;21272;-78
2021/03/29 04:15:07;;;;;;;20.45;9.83;;;;;;;25.57;35.44;157870.94;1670032;83;21182;-76
2021/03/29 04:17:43;;;;;;;21.75;11.08;;;;;;;25.55;35.51;157864.25;1668333;83;21218;-76
2021/03/29 04:20:18;;;;;;;23.25;10.93;;;;;;;25.48;35.52;157847.00;1665604;83;21227;-78
2021/03/29 04:22:53;;;;;;;24.52;10.78;;;;;;;26.28;34.58;158060.88;1660720;83;21440;-78
2021/03/29 04:25:27;;;;;;;25.75;10.65;;;;;;;26.36;34.52;158080.81;1623698;85;21276;-78
2021/03/29 04:28:01;;;;;;;22.85;10.40;;;;;;;26.41;34.48;158094.13;1661495;83;22067;-78
2021/03/29 04:30:36;;;;;;;23.67;11.65;;;;;;;26.38;34.52;158087.44;1651174;84;21306;-78
2021/03/29 04:33:11;;;;;;;23.90;11.08;;;;;;;26.50;34.41;158119.38;1690727;82;21430;-78
2021/03/29 04:35:45;;;;;;;17.60;9.58;;;;;;;26.62;34.31;158152.58;1699973;82;21256;-77
2021/03/29 04:38:19;;;;;;;19.67;9.65;;;;;;;26.64;34.15;158156.59;1685487;82;21264;-79
2021/03/29 04:40:54;;;;;;;17.42;9.23;;;;;;;26.68;34.18;158167.19;1688193;81;21212;-78
2021/03/29 04:43:27;;;;;;;22.52;10.40;;;;;;;26.87;33.91;158219.03;1685518;82;21382;-79
2021/03/29 04:46:01;;;;;;;22.07;9.70;;;;;;;26.10;34.77;158013.03;1688153;82;21280;-79
2021/03/29 04:48:35;;;;;;;20.92;10.60;;;;;;;25.88;35.04;157953.28;1682453;82;21778;-76
2021/03/29 04:51:09;;;;;;;20.17;9.75;;;;;;;25.87;35.14;157950.63;1687117;82;21379;-76
2021/03/29 04:53:43;;;;;;;20.02;9.35;;;;;;;25.96;34.99;157974.53;1682534;82;21347;-75
2021/03/29 04:56:18;;;;;;;23.42;10.80;;;;;;;25.85;35.08;157946.66;1683586;82;21197;-76
2021/03/29 04:58:51;;;;;;;17.12;8.55;;;;;;;25.83;35.13;157939.98;1682360;82;21370;-82
2021/03/29 05:01:25;;;;;;;21.27;9.83;;;;;;;25.82;35.17;157937.33;1685154;82;21435;-85
2021/03/29 05:03:58;;;;;;;17.15;9.00;;;;;;;25.91;35.14;157962.58;1687307;82;21286;-80
2021/03/29 05:06:36;;;;;;;19.17;9.23;;;;;;;25.93;35.11;157967.89;1691491;82;21339;-80
2021/03/29 05:09:14;;;;;;;20.45;9.38;;;;;;;25.92;35.07;157965.23;1685955;82;21394;-78
2021/03/29 05:11:53;;;;;;;14.93;8.45;;;;;;;25.94;35.05;157970.56;1692231;82;21887;-81
2021/03/29 05:14:26;;;;;;;19.62;9.28;;;;;;;26.07;34.93;158003.75;1683027;82;21388;-80
2021/03/29 05:17:00;;;;;;;16.77;8.63;;;;;;;26.27;34.79;158058.22;1690715;82;21374;-82
2021/03/29 05:19:34;;;;;;;18.17;9.48;;;;;;;26.35;34.74;158078.16;1690045;82;21283;-82
2021/03/29 05:22:08;;;;;;;17.77;9.08;;;;;;;26.57;34.43;158139.31;1697832;84;21825;-82
2021/03/29 05:24:41;;;;;;;18.77;9.18;;;;;;;26.31;34.65;158068.86;1711268;82;21441;-80
2021/03/29 05:27:14;;;;;;;16.32;8.80;;;;;;;26.39;34.64;158088.80;1714611;83;21212;-79
2021/03/29 05:29:48;;;;;;;19.73;9.53;;;;;;;26.51;34.43;158120.69;1710410;84;21324;-80
2021/03/29 05:32:23;;;;;;;19.45;9.53;;;;;;;26.51;34.37;158122.05;1710301;84;21379;-80
2021/03/29 05:35:06;;;;;;;19.30;9.53;;;;;;;26.54;34.32;158131.34;1705917;83;21334;-79
2021/03/29 05:37:33;;;;;;;18.32;9.48;;;;;;;26.47;34.26;158110.09;1661601;84;21217;-79
2021/03/29 05:40:07;;;;;;;20.75;9.50;;;;;;;26.49;34.26;158115.41;1642596;86;22322;-81
2021/03/29 05:42:40;;;;;;;20.62;10.53;;;;;;;26.53;34.17;158127.37;1658254;85;21379;-82
2021/03/29 05:45:13;;;;;;;20.65;10.05;;;;;;;26.51;34.20;158120.69;1658259;86;21394;-82
2021/03/29 05:47:47;;;;;;;18.48;10.05;;;;;;;26.44;34.27;158102.11;1662005;84;21295;-80
2021/03/29 05:50:19;;;;;;;19.35;9.63;;;;;;;26.44;34.31;158103.47;1645556;84;21245;-80
2021/03/29 05:52:53;;;;;;;17.73;9.70;;;;;;;26.58;34.27;158140.63;1647300;84;21260;-76
2021/03/29 05:55:34;;;;;;;22.22;10.75;;;;;;;26.70;34.18;158173.88;1651718;84;21270;-81
2021/03/29 06:00:42;;;;;;;19.15;9.53;;;;;;;26.96;33.76;158241.64;1641406;84;21918;-76
2021/03/29 06:03:22;;;;;;;20.55;11.03;;;;;;;26.93;33.86;158233.66;1639722;84;21210;-78
2021/03/29 06:06:15;;;;;;;24.95;10.95;;;;;;;26.94;33.71;158237.67;1643980;84;21289;-77
2021/03/29 06:08:52;;;;;;;19.15;9.75;;;;;;;26.67;33.98;158165.89;1646611;84;21463;-80
2021/03/29 06:11:34;;;;;;;19.52;9.23;;;;;;;26.60;34.21;158145.95;1650523;84;21903;-89
2021/03/29 06:14:16;;;;;;;20.82;11.48;;;;;;;26.63;34.24;158155.25;1643596;85;21833;-81
2021/03/29 06:17:00;;;;;;;21.68;11.75;;;;;;;26.76;34.16;158189.80;1651204;84;21479;-77
2021/03/29 06:19:49;;;;;;;17.20;9.68;;;;;;;26.78;34.09;158195.13;1646982;84;21364;-76
2021/03/29 06:22:31;;;;;;;19.50;10.50;;;;;;;26.83;34.07;158208.44;1648523;83;21324;-80
2021/03/29 06:25:20;;;;;;;21.35;11.55;;;;;;;26.94;34.02;158237.67;1652646;83;21242;-80
2021/03/29 06:27:56;;;;;;;22.40;12.50;;;;;;;27.08;33.85;158274.89;1635081;85;22438;-83
2021/03/29 06:30:37;;;;;;;27.02;13.50;;;;;;;27.12;33.67;158285.55;1693563;82;21394;-81
2021/03/29 06:33:14;;;;;;;23.12;12.05;;;;;;;27.12;33.65;158285.55;1700544;82;21464;-84
2021/03/29 06:35:55;;;;;;;21.60;12.33;;;;;;;27.14;33.53;158290.88;1692710;82;21369;-80
2021/03/29 06:38:36;;;;;;;28.45;13.30;;;;;;;27.08;33.53;158274.89;1691288;82;21377;-77
2021/03/29 06:41:09;;;;;;;;;;;;;;;27.13;33.44;158288.22;1694628;82;21389;-77
2021/03/29 06:43:44;;;;;;;28.92;14.87;;;;;;;27.08;33.52;158274.89;1694104;82;20315;-77
2021/03/29 06:46:26;;;;;;;25.95;13.13;;;;;;;27.15;33.52;158293.53;1694237;82;21216;-78
2021/03/29 06:49:02;;;;;;;22.32;12.82;;;;;;;27.20;33.39;158305.50;1697090;82;21377;-79
2021/03/29 06:51:36;;;;;;;25.57;13.18;;;;;;;27.26;33.32;158321.42;1695315;82;21236;-79
2021/03/29 06:54:12;;;;;;;21.75;12.33;;;;;;;27.16;33.29;158294.84;1695723;82;21775;-78
2021/03/29 06:56:50;;;;;;;24.63;12.65;;;;;;;27.20;33.32;158306.81;1695516;82;21374;-78
2021/03/29 06:59:27;;;;;;;27.67;13.00;;;;;;;27.06;33.47;158269.63;1691949;82;21384;-77
2021/03/29 07:02:00;;;;;;;25.52;14.10;;;;;;;27.16;33.35;158294.84;1697034;82;21422;-78
2021/03/29 07:04:33;;;;;;;30.52;14.40;;;;;;;27.36;33.11;158349.38;1692562;82;21317;-77
2021/03/29 07:07:06;;;;;;;25.05;13.32;;;;;;;27.14;33.36;158289.56;1693030;82;21751;-76
2021/03/29 07:09:41;;;;;;;29.92;14.47;;;;;;;27.08;33.32;158274.89;1694640;82;21272;-76
2021/03/29 07:12:14;;;;;;;27.02;13.70;;;;;;;27.11;33.37;158282.89;1696003;82;21885;-77
2021/03/29 07:14:47;;;;;;;23.57;13.05;;;;;;;27.24;33.14;158316.16;1703490;82;21421;-75
2021/03/29 07:17:21;;;;;;;24.05;12.37;;;;;;;27.24;33.21;158317.45;1690195;83;21382;-74
2021/03/29 07:19:55;;;;;;;21.48;12.63;;;;;;;27.56;32.91;158402.53;1696702;82;21494;-74
2021/03/29 07:22:30;;;;;;;22.35;12.03;;;;;;;27.66;32.83;158429.22;1692806;82;21291;-74
2021/03/29 07:25:08;;;;;;;23.65;12.75;;;;;;;27.38;33.12;158354.69;1695232;82;21759;-75
2021/03/29 07:27:55;;;;;;;21.35;11.97;;;;;;;27.37;33.16;158352.03;1688645;82;21260;-75
2021/03/29 07:30:45;;;;;;;23.10;11.45;;;;;;;27.52;33.13;158391.94;1697427;82;21224;-76
2021/03/29 07:33:19;;;;;;;22.35;11.40;;;;;;;27.63;33.15;158421.19;1688916;82;21259;-74
2021/03/29 07:35:54;;;;;;;22.93;11.75;;;;;;;27.94;32.79;158503.67;1691566;82;21347;-73
2021/03/29 07:38:27;;;;;;;18.07;10.93;;;;;;;27.94;32.81;158503.67;1691039;82;21366;-76
2021/03/29 07:41:01;;;;;;;21.45;10.93;;;;;;;28.09;32.74;158544.91;1670981;83;21707;-76
2021/03/29 07:43:35;;;;;;;19.23;11.03;;;;;;;28.25;32.47;158587.55;1699661;82;21323;-79
2021/03/29 07:46:09;;;;;;;27.37;11.90;;;;;;;28.28;32.46;158594.19;1689646;82;21251;-77
2021/03/29 07:48:47;;;;;;;20.57;11.40;;;;;;;28.37;32.39;158619.48;1686590;82;21268;-78
2021/03/29 07:51:23;;;;;;;21.52;11.57;;;;;;;28.49;32.18;158652.72;1687626;82;21251;-74
2021/03/29 07:54:01;;;;;;;20.52;11.63;;;;;;;28.63;32.01;158690.00;1687600;82;21228;-75
2021/03/29 07:56:41;;;;;;;24.27;12.33;;;;;;;28.73;31.98;158715.30;1688085;82;21228;-73
2021/03/29 07:59:15;;;;;;;21.93;11.75;;;;;;;28.88;31.81;158756.61;1688310;82;21251;-76
2021/03/29 08:02:05;;;;;;;25.45;14.05;;;;;;;28.99;31.62;158784.58;1693186;82;21227;-76
2021/03/29 08:05:07;;;;;;;25.43;12.25;;;;;;;28.94;31.60;158772.56;1693077;82;21220;-76
2021/03/29 08:07:48;;;;;;;21.57;11.65;;;;;;;28.99;31.60;158785.89;1690489;82;21719;-76
2021/03/29 08:10:24;;;;;;;20.97;12.20;;;;;;;29.24;31.34;158851.09;1689932;83;21942;-74
2021/03/29 08:13:00;;;;;;;25.80;13.15;;;;;;;29.56;31.23;158939.09;1677997;83;21224;-77
2021/03/29 08:16:04;;;;;;;28.95;15.60;;;;;;;29.85;30.77;159016.31;1686147;82;21271;-77
2021/03/29 08:19:14;;;;;;;34.95;16.23;;;;;;;30.03;30.49;159064.34;1692012;82;21193;-80
2021/03/29 08:22:01;;;;;;;;;;;;;;;30.07;30.26;159074.97;1688567;82;21221;-77
2021/03/29 08:24:49;;;;;;;26.80;14.87;;;;;;;29.98;30.21;159049.64;1689186;82;20647;-76
2021/03/29 08:27:30;;;;;;;32.95;16.57;;;;;;;29.94;30.35;159038.97;1686978;82;21213;-78
2021/03/29 08:30:15;;;;;;;32.38;17.27;;;;;;;29.96;30.35;159044.36;1690729;82;21755;-77
2021/03/29 08:32:49;;;;;;;30.88;16.97;;;;;;;29.95;30.31;159041.69;1689313;82;21411;-75
2021/03/29 08:35:22;;;;;;;32.33;15.95;;;;;;;30.04;30.37;159066.97;1686737;82;21929;-75
2021/03/29 08:37:56;;;;;;;31.30;17.57;;;;;;;30.31;30.27;159137.63;1687204;82;21346;-74
2021/03/29 08:40:32;;;;;;;32.60;19.37;;;;;;;30.57;29.94;159209.59;1694737;82;21731;-76
2021/03/29 08:43:09;;;;;;;32.45;17.10;;;;;;;30.80;29.68;159269.59;1688570;82;21732;-77
2021/03/29 08:45:42;;;;;;;29.75;16.85;;;;;;;30.87;29.67;159289.61;1694893;82;21339;-72
2021/03/29 08:48:15;;;;;;;30.82;16.50;;;;;;;30.84;29.29;159281.59;1689541;82;21358;-77
2021/03/29 08:50:48;;;;;;;38.38;19.20;;;;;;;30.68;29.42;159238.91;1696148;82;21212;-73
2021/03/29 08:53:22;;;;;;;39.60;18.50;;;;;;;30.56;29.59;159206.92;1691711;82;22379;-73
2021/03/29 08:55:55;;;;;;;30.55;17.80;;;;;;;30.52;29.73;159194.94;1687299;82;21914;-69
2021/03/29 08:58:29;;;;;;;28.12;14.83;;;;;;;30.62;29.77;159221.59;1686485;82;21225;-74
2021/03/29 09:01:03;;;;;;;30.95;17.12;;;;;;;30.65;29.75;159229.59;1687610;82;21795;-76
2021/03/29 09:03:36;;;;;;;33.48;17.65;;;;;;;30.76;29.71;159260.28;1689762;82;21320;-76
2021/03/29 09:06:17;;;;;;;35.65;17.65;;;;;;;31.16;29.16;159365.64;1687445;82;21384;-79
2021/03/29 09:08:51;;;;;;;34.67;18.92;;;;;;;31.19;29.20;159374.97;1689097;82;21221;-79
2021/03/29 09:11:28;;;;;;;32.13;16.75;;;;;;;30.90;29.05;159297.56;1689408;82;21244;-81
2021/03/29 09:14:01;;;;;;;35.73;17.57;;;;;;;30.76;29.30;159260.28;1693121;82;22411;-84
2021/03/29 09:16:36;;;;;;;34.48;17.15;;;;;;;30.95;29.37;159310.91;1685736;82;21260;-83
2021/03/29 09:19:20;;;;;;;28.77;14.75;;;;;;;32.11;28.78;159620.48;1693150;82;21184;-83
2021/03/29 09:21:56;;;;;;;32.35;16.45;;;;;;;32.31;28.24;159675.20;1692905;82;21700;-84
2021/03/29 09:24:31;;;;;;;30.43;15.80;;;;;;;32.88;27.86;159828.72;1696450;82;21347;-88
2021/03/29 09:27:10;;;;;;;32.90;17.35;;;;;;;33.11;27.58;159890.19;1706882;82;21383;-88
2021/03/29 09:29:41;;;;;;;31.55;17.75;;;;;;;33.45;27.50;159980.98;1700843;82;21322;-84
2021/03/29 09:32:18;;;;;;;30.55;15.63;;;;;;;33.68;26.66;160042.53;1699805;82;21387;-76
2021/03/29 09:34:52;;;;;;;27.05;15.38;;;;;;;33.48;26.95;159990.38;1697789;82;21382;-84
2021/03/29 09:37:28;;;;;;;26.02;13.93;;;;;;;34.02;26.82;160133.36;1688614;82;21323;-84
2021/03/29 09:40:07;;;;;;;26.12;14.30;;;;;;;34.41;26.41;160240.28;1682507;82;21913;-77
2021/03/29 09:42:46;;;;;;;26.12;15.93;;;;;;;34.33;26.26;160217.55;1682405;82;21382;-84
2021/03/29 09:45:30;;;;;;;25.95;15.05;;;;;;;34.64;26.00;160301.81;1689174;82;21375;-82
2021/03/29 09:48:09;;;;;;;27.62;14.85;;;;;;;35.05;25.63;160410.09;1691454;82;21245;-81
2021/03/29 09:50:47;;;;;;;27.45;15.58;;;;;;;35.42;25.32;160510.41;1690548;82;21375;-80
2021/03/29 09:53:25;;;;;;;30.23;16.50;;;;;;;35.27;24.97;160470.34;1687603;83;21323;-76
2021/03/29 09:56:01;;;;;;;30.02;17.07;;;;;;;34.92;25.29;160375.33;1684015;82;21415;-77
2021/03/29 09:58:39;;;;;;;24.15;14.40;;;;;;;35.80;25.20;160613.50;1683278;82;21378;-78
2021/03/29 10:01:22;;;;;;;29.50;14.68;;;;;;;37.04;24.23;160946.83;1700396;82;21312;-77
2021/03/29 10:04:00;;;;;;;23.05;14.53;;;;;;;38.14;23.63;161242.91;1687453;82;21402;-76
2021/03/29 10:06:35;;;;;;;24.80;13.50;;;;;;;38.57;23.32;161358.23;1688601;82;21347;-78
2021/03/29 10:09:08;;;;;;;25.55;13.62;;;;;;;37.98;22.92;161198.70;1687649;82;21370;-79
2021/03/29 10:11:50;;;;;;;25.48;14.70;;;;;;;36.86;23.53;160897.28;1685501;82;21181;-78
2021/03/29 10:14:39;;;;;;;27.55;14.95;;;;;;;35.96;24.23;160654.95;1689623;82;21323;-76
2021/03/29 10:17:19;;;;;;;27.48;15.30;;;;;;;35.43;24.64;160513.09;1686423;84;21481;-80
2021/03/29 10:19:53;;;;;;;25.35;15.70;;;;;;;35.13;25.07;160431.56;1690508;82;21248;-79
2021/03/29 10:22:26;;;;;;;29.20;17.87;;;;;;;34.90;25.16;160371.33;1693659;82;21335;-78
2021/03/29 10:25:16;;;;;;;23.98;14.25;;;;;;;35.02;25.13;160403.42;1688188;82;21394;-77
2021/03/29 10:27:54;;;;;;;;;;;;;;;35.81;25.15;160616.17;1691446;82;21677;-77
2021/03/29 10:30:31;;;;;;;25.27;14.45;;;;;;;37.40;23.99;161043.28;1693858;82;20275;-77
2021/03/29 10:33:06;;;;;;;25.90;15.28;;;;;;;37.90;23.21;161178.66;1696486;82;21185;-78
2021/03/29 10:35:40;;;;;;;31.55;16.57;;;;;;;38.02;23.23;161210.81;1695345;82;21438;-79
2021/03/29 10:38:14;;;;;;;31.73;16.60;;;;;;;37.46;23.12;161059.38;1708754;81;21233;-78
2021/03/29 10:40:47;;;;;;;30.37;15.72;;;;;;;36.79;23.61;160879.87;1688223;82;21168;-77
2021/03/29 10:43:21;;;;;;;24.63;13.95;;;;;;;36.03;24.02;160675.09;1690853;82;21180;-78
2021/03/29 10:45:55;;;;;;;26.60;15.50;;;;;;;35.48;24.42;160526.48;1691069;82;21232;-76
2021/03/29 10:48:28;;;;;;;31.35;16.70;;;;;;;35.06;24.92;160414.19;1688574;82;21228;-78
2021/03/29 10:51:02;;;;;;;24.85;15.53;;;;;;;35.15;25.02;160438.25;1695856;82;21182;-78
2021/03/29 10:53:36;;;;;;;28.00;14.63;;;;;;;34.99;24.93;160395.39;1692076;82;21205;-81
2021/03/29 10:56:09;;;;;;;24.52;13.95;;;;;;;35.13;25.15;160431.56;1688338;82;21687;-79
2021/03/29 10:58:43;;;;;;;27.37;15.35;;;;;;;34.90;25.05;160369.97;1696741;82;21796;-79
2021/03/29 11:01:16;;;;;;;27.93;16.15;;;;;;;34.71;25.13;160320.56;1641420;85;21434;-84
2021/03/29 11:03:50;;;;;;;30.95;16.95;;;;;;;34.85;25.15;160356.62;1637400;85;21716;-77
2021/03/29 11:06:23;;;;;;;25.15;14.75;;;;;;;35.19;25.17;160450.27;1648571;84;21245;-80
2021/03/29 11:08:56;;;;;;;29.18;15.53;;;;;;;35.97;24.51;160658.95;1651589;84;21410;-85
2021/03/29 11:11:29;;;;;;;28.92;15.70;;;;;;;36.16;24.02;160709.87;1627790;85;21246;-85
2021/03/29 11:14:03;;;;;;;26.82;14.73;;;;;;;35.86;24.17;160629.53;1689927;82;21220;-78
2021/03/29 11:16:38;;;;;;;26.57;16.00;;;;;;;36.19;24.14;160719.23;1686360;82;21224;-77
2021/03/29 11:19:11;;;;;;;26.20;15.20;;;;;;;36.88;23.93;160903.97;1689027;82;21197;-81
2021/03/29 11:21:45;;;;;;;27.35;17.73;;;;;;;37.67;23.32;161116.98;1689308;82;21200;-78
2021/03/29 11:24:24;;;;;;;33.88;15.90;;;;;;;38.43;22.77;161320.70;1689244;82;21386;-78
2021/03/29 11:26:57;;;;;;;27.55;16.62;;;;;;;38.42;22.59;161318.02;1692674;82;21645;-80
2021/03/29 11:29:30;;;;;;;22.85;14.43;;;;;;;38.07;22.74;161224.17;1687292;82;21239;-79
2021/03/29 11:32:04;;;;;;;28.30;16.40;;;;;;;37.64;22.99;161108.94;1686170;82;21173;-79
2021/03/29 11:34:37;;;;;;;31.68;16.87;;;;;;;36.85;23.25;160895.92;1687044;82;21215;-80
2021/03/29 11:37:10;;;;;;;24.92;15.40;;;;;;;36.12;23.82;160700.47;1688559;82;21382;-77
2021/03/29 11:39:43;;;;;;;25.48;14.73;;;;;;;35.87;24.12;160632.20;1689590;82;21204;-78
2021/03/29 11:42:17;;;;;;;25.15;14.95;;;;;;;36.00;24.38;160667.05;1687222;82;21235;-77
2021/03/29 11:44:50;;;;;;;25.60;15.23;;;;;;;36.54;24.12;160811.59;1687042;82;21189;-80
2021/03/29 11:47:23;;;;;;;28.70;15.90;;;;;;;36.68;23.98;160849.08;1695705;82;21268;-80
2021/03/29 11:49:57;;;;;;;26.10;16.42;;;;;;;36.90;24.02;160909.39;1692507;83;21239;-82
2021/03/29 11:52:30;;;;;;;29.82;17.42;;;;;;;36.95;23.75;160922.75;1695434;82;21890;-80